sensor_id;sensor_type;location;lat;lon;timestamp;pressure;altitude;pressure_sealevel;temperature;humidity
44675;BME280;30388;52.038;-1.478;2023-04-10T00:01:08;65626.95;;;8.34;100.00
44675;BME280;30388;52.038;-1.478;2023-04-10T00:03:36;65632.41;;;8.69;100.00
44675;BME280;30388;52.038;-1.478;2023-04-10T00:06:04;65652.40;;;8.93;100.00
44675;BME280;30388;52.038;-1.478;2023-04-10T00:08:31;65579.67;;;8.02;100.00
44675;BME280;30388;52.038;-1.478;2023-04-10T00:10:58;65719.37;;;9.52;100.00
44675;BME280;30388;52.038;-1.478;2023-04-10T00:13:25;65658.54;;;8.75;100.00
44675;BME280;30388;52.038;-1.478;2023-04-10T00:15:52;65706.04;;;9.12;100.00
44675;BME280;30388;52.038;-1.478;2023-04-10T00:18:19;65711.62;;;9.42;100.00
44675;BME280;30388;52.038;-1.478;2023-04-10T00:20:46;65679.84;;;9.02;100.00
44675;BME280;30388;52.038;-1.478;2023-04-10T00:23:14;65698.51;;;9.52;100.00
44675;BME280;30388;52.038;-1.478;2023-04-10T00:25:41;65648.02;;;8.88;100.00
44675;BME280;30388;52.038;-1.478;2023-04-10T00:28:08;65695.76;;;9.49;100.00
44675;BME280;30388;52.038;-1.478;2023-04-10T00:30:35;65640.32;;;8.78;100.00
44675;BME280;30388;52.038;-1.478;2023-04-10T00:33:02;65676.31;;;9.23;100.00
44675;BME280;30388;52.038;-1.478;2023-04-10T00:35:30;65690.82;;;9.43;100.00
44675;BME280;30388;52.038;-1.478;2023-04-10T00:37:57;65697.45;;;9.51;100.00
44675;BME280;30388;52.038;-1.478;2023-04-10T00:40:24;65629.77;;;8.66;100.00
44675;BME280;30388;52.038;-1.478;2023-04-10T00:42:52;65613.77;;;8.90;100.00
44675;BME280;30388;52.038;-1.478;2023-04-10T00:45:19;65663.78;;;9.08;100.00
44675;BME280;30388;52.038;-1.478;2023-04-10T00:47:46;65710.87;;;9.67;100.00
44675;BME280;30388;52.038;-1.478;2023-04-10T00:50:13;65663.77;;;9.08;100.00
44675;BME280;30388;52.038;-1.478;2023-04-10T00:52:40;65555.21;;;8.15;100.00
44675;BME280;30388;52.038;-1.478;2023-04-10T00:55:08;65554.61;;;8.14;100.00
44675;BME280;30388;52.038;-1.478;2023-04-10T00:57:37;65530.41;;;7.83;100.00
44675;BME280;30388;52.038;-1.478;2023-04-10T01:00:06;65598.24;;;8.70;100.00
44675;BME280;30388;52.038;-1.478;2023-04-10T01:02:33;65540.24;;;8.23;100.00
44675;BME280;30388;52.038;-1.478;2023-04-10T01:05:01;65531.31;;;7.84;100.00
44675;BME280;30388;52.038;-1.478;2023-04-10T01:07:37;65530.64;;;7.84;100.00
44675;BME280;30388;52.038;-1.478;2023-04-10T01:10:16;65480.58;;;7.48;100.00
44675;BME280;30388;52.038;-1.478;2023-04-10T01:12:53;65567.42;;;8.09;100.00
44675;BME280;30388;52.038;-1.478;2023-04-10T01:15:25;65622.05;;;8.78;100.00
44675;BME280;30388;52.038;-1.478;2023-04-10T01:17:57;65631.32;;;9.11;100.00
44675;BME280;30388;52.038;-1.478;2023-04-10T01:20:29;65664.58;;;9.32;100.00
44675;BME280;30388;52.038;-1.478;2023-04-10T01:23:15;65728.25;;;9.41;100.00
44675;BME280;30388;52.038;-1.478;2023-04-10T01:25:49;65638.17;;;8.99;100.00
44675;BME280;30388;52.038;-1.478;2023-04-10T01:28:37;65596.29;;;8.45;100.00
44675;BME280;30388;52.038;-1.478;2023-04-10T01:31:10;65604.03;;;8.77;100.00
44675;BME280;30388;52.038;-1.478;2023-04-10T01:33:42;65650.57;;;8.93;100.00
44675;BME280;30388;52.038;-1.478;2023-04-10T01:36:20;65591.35;;;8.62;100.00
44675;BME280;30388;52.038;-1.478;2023-04-10T01:38:49;65521.81;;;7.73;100.00
44675;BME280;30388;52.038;-1.478;2023-04-10T01:41:18;65558.86;;;8.20;100.00
44675;BME280;30388;52.038;-1.478;2023-04-10T01:43:48;65607.20;;;8.59;100.00
44675;BME280;30388;52.038;-1.478;2023-04-10T01:46:18;65579.67;;;8.73;100.00
44675;BME280;30388;52.038;-1.478;2023-04-10T01:48:46;65595.91;;;8.68;100.00
44675;BME280;30388;52.038;-1.478;2023-04-10T01:51:15;65620.57;;;8.99;100.00
44675;BME280;30388;52.038;-1.478;2023-04-10T01:53:44;65594.95;;;8.43;100.00
44675;BME280;30388;52.038;-1.478;2023-04-10T01:56:12;65558.80;;;8.20;100.00
44675;BME280;30388;52.038;-1.478;2023-04-10T01:58:39;65585.74;;;8.80;100.00
44675;BME280;30388;52.038;-1.478;2023-04-10T02:01:06;65484.83;;;7.53;100.00
44675;BME280;30388;52.038;-1.478;2023-04-10T02:03:33;65562.92;;;8.25;100.00
44675;BME280;30388;52.038;-1.478;2023-04-10T02:06:10;65621.51;;;8.99;100.00
44675;BME280;30388;52.038;-1.478;2023-04-10T02:08:42;65687.63;;;9.13;100.00
44675;BME280;30388;52.038;-1.478;2023-04-10T02:11:19;65650.20;;;8.95;100.00
44675;BME280;30388;52.038;-1.478;2023-04-10T02:13:50;65669.23;;;9.15;100.00
44675;BME280;30388;52.038;-1.478;2023-04-10T02:16:21;65643.95;;;9.06;100.00
44675;BME280;30388;52.038;-1.478;2023-04-10T02:18:49;65598.37;;;8.70;100.00
44675;BME280;30388;52.038;-1.478;2023-04-10T02:21:17;65598.42;;;8.48;100.00
44675;BME280;30388;52.038;-1.478;2023-04-10T02:23:44;65657.00;;;9.00;100.00
44675;BME280;30388;52.038;-1.478;2023-04-10T02:26:12;65720.86;;;9.54;100.00
44675;BME280;30388;52.038;-1.478;2023-04-10T02:28:39;65720.27;;;9.54;100.00
44675;BME280;30388;52.038;-1.478;2023-04-10T02:31:06;65717.10;;;9.76;100.00
44675;BME280;30388;52.038;-1.478;2023-04-10T02:33:33;65650.79;;;8.93;100.00
44675;BME280;30388;52.038;-1.478;2023-04-10T02:36:00;65621.40;;;8.55;100.00
44675;BME280;30388;52.038;-1.478;2023-04-10T02:38:28;65602.59;;;8.53;100.00
44675;BME280;30388;52.038;-1.478;2023-04-10T02:40:55;65663.00;;;9.08;100.00
44675;BME280;30388;52.038;-1.478;2023-04-10T02:43:22;65583.17;;;8.52;100.00
44675;BME280;30388;52.038;-1.478;2023-04-10T02:45:51;65594.71;;;8.22;100.00
44675;BME280;30388;52.038;-1.478;2023-04-10T02:48:19;65622.32;;;8.56;100.00
44675;BME280;30388;52.038;-1.478;2023-04-10T02:50:46;65695.09;;;9.71;100.00
44675;BME280;30388;52.038;-1.478;2023-04-10T02:53:14;65668.83;;;9.15;100.00
44675;BME280;30388;52.038;-1.478;2023-04-10T02:55:42;65681.08;;;9.03;100.00
44675;BME280;30388;52.038;-1.478;2023-04-10T02:58:09;65656.52;;;9.21;100.00
44675;BME280;30388;52.038;-1.478;2023-04-10T03:00:36;65568.44;;;8.10;100.00
44675;BME280;30388;52.038;-1.478;2023-04-10T03:03:04;65590.50;;;8.60;100.00
44675;BME280;30388;52.038;-1.478;2023-04-10T03:05:31;65710.87;;;9.68;100.00
44675;BME280;30388;52.038;-1.478;2023-04-10T03:07:58;65701.61;;;9.29;100.00
44675;BME280;30388;52.038;-1.478;2023-04-10T03:10:25;65709.91;;;9.18;100.00
44675;BME280;30388;52.038;-1.478;2023-04-10T03:12:52;65725.93;;;9.87;100.00
44675;BME280;30388;52.038;-1.478;2023-04-10T03:15:19;65744.01;;;9.61;100.00
44675;BME280;30388;52.038;-1.478;2023-04-10T03:17:47;65766.63;;;10.39;100.00
44675;BME280;30388;52.038;-1.478;2023-04-10T03:20:14;65753.69;;;9.73;100.00
44675;BME280;30388;52.038;-1.478;2023-04-10T03:22:41;65756.00;;;10.24;100.00
44675;BME280;30388;52.038;-1.478;2023-04-10T03:25:08;65770.18;;;10.16;100.00
44675;BME280;30388;52.038;-1.478;2023-04-10T03:27:37;65714.45;;;9.72;100.00
44675;BME280;30388;52.038;-1.478;2023-04-10T03:30:05;65596.01;;;8.23;100.00
44675;BME280;30388;52.038;-1.478;2023-04-10T03:32:34;65707.70;;;9.64;100.00
44675;BME280;30388;52.038;-1.478;2023-04-10T03:35:01;65698.17;;;9.51;100.00
44675;BME280;30388;52.038;-1.478;2023-04-10T03:37:28;65649.39;;;9.12;100.00
44675;BME280;30388;52.038;-1.478;2023-04-10T03:39:55;65709.21;;;9.66;100.00
44675;BME280;30388;52.038;-1.478;2023-04-10T03:42:22;65629.69;;;8.66;100.00
44675;BME280;30388;52.038;-1.478;2023-04-10T03:44:49;65638.52;;;8.77;100.00
44675;BME280;30388;52.038;-1.478;2023-04-10T03:47:16;65594.31;;;8.66;100.00
44675;BME280;30388;52.038;-1.478;2023-04-10T03:49:44;65600.90;;;9.01;100.00
44675;BME280;30388;52.038;-1.478;2023-04-10T03:52:11;65635.89;;;8.96;100.00
44675;BME280;30388;52.038;-1.478;2023-04-10T03:54:38;65684.96;;;9.59;100.00
44675;BME280;30388;52.038;-1.478;2023-04-10T03:57:05;65672.90;;;9.20;100.00
44675;BME280;30388;52.038;-1.478;2023-04-10T03:59:32;65663.86;;;9.54;100.00
44675;BME280;30388;52.038;-1.478;2023-04-10T04:01:59;65616.95;;;8.72;100.00
44675;BME280;30388;52.038;-1.478;2023-04-10T04:04:26;65663.31;;;9.08;100.00
44675;BME280;30388;52.038;-1.478;2023-04-10T04:06:54;65640.08;;;8.79;100.00
44675;BME280;30388;52.038;-1.478;2023-04-10T04:09:21;65596.75;;;8.45;100.00
44675;BME280;30388;52.038;-1.478;2023-04-10T04:11:48;65530.80;;;7.85;100.00
44675;BME280;30388;52.038;-1.478;2023-04-10T04:14:15;65597.39;;;8.68;100.00
44675;BME280;30388;52.038;-1.478;2023-04-10T04:16:42;65633.31;;;8.70;100.00
44675;BME280;30388;52.038;-1.478;2023-04-10T04:19:09;65678.61;;;9.28;100.00
44675;BME280;30388;52.038;-1.478;2023-04-10T04:21:37;65600.77;;;8.73;100.00
44675;BME280;30388;52.038;-1.478;2023-04-10T04:24:04;65601.51;;;8.74;100.00
44675;BME280;30388;52.038;-1.478;2023-04-10T04:26:32;65514.25;;;8.13;100.00
44675;BME280;30388;52.038;-1.478;2023-04-10T04:28:59;65469.67;;;7.56;100.00
44675;BME280;30388;52.038;-1.478;2023-04-10T04:31:27;65585.57;;;8.54;100.00
44675;BME280;30388;52.038;-1.478;2023-04-10T04:33:54;65591.11;;;8.61;100.00
44675;BME280;30388;52.038;-1.478;2023-04-10T04:36:21;65539.03;;;7.96;100.00
44675;BME280;30388;52.038;-1.478;2023-04-10T04:38:48;65633.73;;;8.93;100.00
44675;BME280;30388;52.038;-1.478;2023-04-10T04:41:15;65640.49;;;9.02;100.00
44675;BME280;30388;52.038;-1.478;2023-04-10T04:43:43;65705.50;;;9.62;100.00
44675;BME280;30388;52.038;-1.478;2023-04-10T04:46:10;65668.88;;;9.16;100.00
44675;BME280;30388;52.038;-1.478;2023-04-10T04:48:37;65633.73;;;8.93;100.00
44675;BME280;30388;52.038;-1.478;2023-04-10T04:51:06;65631.24;;;8.90;100.00
44675;BME280;30388;52.038;-1.478;2023-04-10T04:53:33;65617.58;;;8.73;100.00
44675;BME280;30388;52.038;-1.478;2023-04-10T04:56:01;65681.22;;;9.75;100.00
44675;BME280;30388;52.038;-1.478;2023-04-10T04:58:28;65686.61;;;9.60;100.00
44675;BME280;30388;52.038;-1.478;2023-04-10T05:00:55;65670.56;;;9.62;100.00
44675;BME280;30388;52.038;-1.478;2023-04-10T05:03:22;65744.07;;;10.10;100.00
44675;BME280;30388;52.038;-1.478;2023-04-10T05:05:49;65682.02;;;9.31;100.00
44675;BME280;30388;52.038;-1.478;2023-04-10T05:08:16;65689.83;;;9.86;100.00
44675;BME280;30388;52.038;-1.478;2023-04-10T05:10:43;65678.41;;;9.27;100.00
44675;BME280;30388;52.038;-1.478;2023-04-10T05:13:11;65694.62;;;9.48;100.00
44675;BME280;30388;52.038;-1.478;2023-04-10T05:15:38;65626.78;;;8.84;100.00
44675;BME280;30388;52.038;-1.478;2023-04-10T05:18:05;65683.80;;;9.33;100.00
44675;BME280;30388;52.038;-1.478;2023-04-10T05:20:33;65620.19;;;8.98;100.00
44675;BME280;30388;52.038;-1.478;2023-04-10T05:23:01;65657.17;;;9.44;100.00
44675;BME280;30388;52.038;-1.478;2023-04-10T05:25:29;65703.52;;;9.59;100.00
44675;BME280;30388;52.038;-1.478;2023-04-10T05:27:56;65647.61;;;9.10;100.00
44675;BME280;30388;52.038;-1.478;2023-04-10T05:30:23;65648.04;;;9.11;100.00
44675;BME280;30388;52.038;-1.478;2023-04-10T05:32:50;65706.81;;;9.63;100.00
44675;BME280;30388;52.038;-1.478;2023-04-10T05:35:18;65757.96;;;10.27;100.00
44675;BME280;30388;52.038;-1.478;2023-04-10T05:37:45;65745.87;;;9.86;100.00
44675;BME280;30388;52.038;-1.478;2023-04-10T05:40:12;65697.61;;;9.73;100.00
44675;BME280;30388;52.038;-1.478;2023-04-10T05:42:39;65690.19;;;9.42;100.00
44675;BME280;30388;52.038;-1.478;2023-04-10T05:45:07;65723.03;;;9.83;100.00
44675;BME280;30388;52.038;-1.478;2023-04-10T05:47:34;65680.36;;;9.51;100.00
44675;BME280;30388;52.038;-1.478;2023-04-10T05:50:03;65661.77;;;9.29;100.00
44675;BME280;30388;52.038;-1.478;2023-04-10T05:52:30;65644.44;;;9.28;100.00
44675;BME280;30388;52.038;-1.478;2023-04-10T05:54:57;65599.00;;;8.71;100.00
44675;BME280;30388;52.038;-1.478;2023-04-10T05:57:24;65613.07;;;8.88;100.00
44675;BME280;30388;52.038;-1.478;2023-04-10T05:59:52;65675.57;;;9.23;100.00
44675;BME280;30388;52.038;-1.478;2023-04-10T06:02:19;65693.61;;;9.46;100.00
44675;BME280;30388;52.038;-1.478;2023-04-10T06:04:46;65691.52;;;9.44;100.00
44675;BME280;30388;52.038;-1.478;2023-04-10T06:07:13;65674.47;;;9.45;100.00
44675;BME280;30388;52.038;-1.478;2023-04-10T06:09:40;65638.46;;;8.99;100.00
44675;BME280;30388;52.038;-1.478;2023-04-10T06:12:07;65587.10;;;8.57;100.00
44675;BME280;30388;52.038;-1.478;2023-04-10T06:14:35;65575.62;;;8.42;100.00
44675;BME280;30388;52.038;-1.478;2023-04-10T06:17:02;65595.05;;;8.66;100.00
44675;BME280;30388;52.038;-1.478;2023-04-10T06:19:29;65603.15;;;9.03;100.00
44675;BME280;30388;52.038;-1.478;2023-04-10T06:21:56;65634.86;;;9.16;100.00
44675;BME280;30388;52.038;-1.478;2023-04-10T06:24:23;65655.15;;;8.98;100.00
44675;BME280;30388;52.038;-1.478;2023-04-10T06:26:51;65683.42;;;9.33;100.00
44675;BME280;30388;52.038;-1.478;2023-04-10T06:29:18;65681.89;;;9.31;100.00
44675;BME280;30388;52.038;-1.478;2023-04-10T06:31:45;65677.94;;;9.49;100.00
44675;BME280;30388;52.038;-1.478;2023-04-10T06:34:13;65619.55;;;8.97;100.00
44675;BME280;30388;52.038;-1.478;2023-04-10T06:36:40;65584.44;;;9.01;100.00
44675;BME280;30388;52.038;-1.478;2023-04-10T06:39:07;65562.31;;;8.73;100.00
44675;BME280;30388;52.038;-1.478;2023-04-10T06:41:34;65638.46;;;9.21;100.00
44675;BME280;30388;52.038;-1.478;2023-04-10T06:44:01;65704.13;;;9.60;100.00
44675;BME280;30388;52.038;-1.478;2023-04-10T06:46:28;65704.17;;;9.59;100.00
44675;BME280;30388;52.038;-1.478;2023-04-10T06:48:56;65736.74;;;9.51;100.00
44675;BME280;30388;52.038;-1.478;2023-04-10T06:51:23;65713.73;;;9.72;100.00
44675;BME280;30388;52.038;-1.478;2023-04-10T06:53:51;65717.35;;;9.76;100.00
44675;BME280;30388;52.038;-1.478;2023-04-10T06:56:19;65659.63;;;9.03;100.00
44675;BME280;30388;52.038;-1.478;2023-04-10T06:58:46;65709.26;;;9.66;100.00
44675;BME280;30388;52.038;-1.478;2023-04-10T07:01:13;65727.91;;;9.89;100.00
44675;BME280;30388;52.038;-1.478;2023-04-10T07:03:40;65719.09;;;9.79;100.00
44675;BME280;30388;52.038;-1.478;2023-04-10T07:06:09;65654.83;;;9.20;100.00
44675;BME280;30388;52.038;-1.478;2023-04-10T07:08:36;65704.70;;;9.60;100.00
44675;BME280;30388;52.038;-1.478;2023-04-10T07:11:03;65663.77;;;9.09;100.00
44675;BME280;30388;52.038;-1.478;2023-04-10T07:13:30;65747.13;;;9.87;100.00
44675;BME280;30388;52.038;-1.478;2023-04-10T07:15:57;65734.34;;;9.98;100.00
44675;BME280;30388;52.038;-1.478;2023-04-10T07:18:24;65630.65;;;8.66;100.00
44675;BME280;30388;52.038;-1.478;2023-04-10T07:20:52;65660.01;;;9.26;100.00
44675;BME280;30388;52.038;-1.478;2023-04-10T07:23:19;65684.30;;;9.34;100.00
44675;BME280;30388;52.038;-1.478;2023-04-10T07:25:46;65722.28;;;9.83;100.00
44675;BME280;30388;52.038;-1.478;2023-04-10T07:28:13;65747.58;;;9.89;100.00
44675;BME280;30388;52.038;-1.478;2023-04-10T07:30:40;65712.38;;;9.43;100.00
44675;BME280;30388;52.038;-1.478;2023-04-10T07:33:07;65716.97;;;9.76;100.00
44675;BME280;30388;52.038;-1.478;2023-04-10T07:35:34;65788.61;;;10.67;100.00
44675;BME280;30388;52.038;-1.478;2023-04-10T07:38:01;65708.77;;;9.66;100.00
44675;BME280;30388;52.038;-1.478;2023-04-10T07:40:28;65748.04;;;10.16;100.00
44675;BME280;30388;52.038;-1.478;2023-04-10T07:42:56;65765.38;;;10.38;100.00
44675;BME280;30388;52.038;-1.478;2023-04-10T07:45:23;65754.26;;;10.24;100.00
44675;BME280;30388;52.038;-1.478;2023-04-10T07:47:50;65768.21;;;9.92;100.00
44675;BME280;30388;52.038;-1.478;2023-04-10T07:50:18;65705.82;;;9.13;100.00
44675;BME280;30388;52.038;-1.478;2023-04-10T07:52:45;65777.23;;;10.02;100.00
44675;BME280;30388;52.038;-1.478;2023-04-10T07:55:12;65829.12;;;10.42;100.00
44675;BME280;30388;52.038;-1.478;2023-04-10T07:57:40;65719.78;;;9.30;100.00
44675;BME280;30388;52.038;-1.478;2023-04-10T08:00:08;65735.04;;;9.50;100.00
44675;BME280;30388;52.038;-1.478;2023-04-10T08:02:35;65768.93;;;9.92;100.00
44675;BME280;30388;52.038;-1.478;2023-04-10T08:05:02;65750.23;;;10.18;100.00
44675;BME280;30388;52.038;-1.478;2023-04-10T08:07:29;65780.54;;;10.30;100.00
44675;BME280;30388;52.038;-1.478;2023-04-10T08:09:56;65770.41;;;9.94;100.00
44675;BME280;30388;52.038;-1.478;2023-04-10T08:12:23;65844.68;;;10.88;100.00
44675;BME280;30388;52.038;-1.478;2023-04-10T08:14:51;65805.04;;;10.12;100.00
44675;BME280;30388;52.038;-1.478;2023-04-10T08:17:18;65832.49;;;10.46;100.00
44675;BME280;30388;52.038;-1.478;2023-04-10T08:19:45;65847.15;;;10.92;100.00
44675;BME280;30388;52.038;-1.478;2023-04-10T08:22:13;65845.74;;;10.90;100.00
44675;BME280;30388;52.038;-1.478;2023-04-10T08:24:40;65832.74;;;10.47;100.00
44675;BME280;30388;52.038;-1.478;2023-04-10T08:27:07;65819.35;;;10.57;100.00
44675;BME280;30388;52.038;-1.478;2023-04-10T08:29:34;65845.60;;;10.90;100.00
44675;BME280;30388;52.038;-1.478;2023-04-10T08:32:01;65838.15;;;10.81;100.00
44675;BME280;30388;52.038;-1.478;2023-04-10T08:34:28;65813.58;;;10.50;100.00
44675;BME280;30388;52.038;-1.478;2023-04-10T08:36:56;65800.19;;;10.32;100.00
44675;BME280;30388;52.038;-1.478;2023-04-10T08:39:23;65793.90;;;10.24;100.00
44675;BME280;30388;52.038;-1.478;2023-04-10T08:41:51;65839.42;;;10.82;100.00
44675;BME280;30388;52.038;-1.478;2023-04-10T08:44:19;65902.84;;;11.13;100.00
44675;BME280;30388;52.038;-1.478;2023-04-10T08:46:47;65895.28;;;11.03;100.00
44675;BME280;30388;52.038;-1.478;2023-04-10T08:49:23;65905.87;;;11.39;100.00
44675;BME280;30388;52.038;-1.478;2023-04-10T08:51:55;65907.15;;;11.19;100.00
44675;BME280;30388;52.038;-1.478;2023-04-10T08:54:26;65918.42;;;11.33;100.00
44675;BME280;30388;52.038;-1.478;2023-04-10T08:56:55;65922.26;;;11.16;100.00
44675;BME280;30388;52.038;-1.478;2023-04-10T08:59:22;65982.47;;;12.15;100.00
44675;BME280;30388;52.038;-1.478;2023-04-10T09:01:50;65931.09;;;11.49;100.00
44675;BME280;30388;52.038;-1.478;2023-04-10T09:04:18;65908.62;;;11.21;100.00
44675;BME280;30388;52.038;-1.478;2023-04-10T09:06:46;65910.36;;;11.23;100.00
44675;BME280;30388;52.038;-1.478;2023-04-10T09:09:13;65926.33;;;11.43;100.00
44675;BME280;30388;52.038;-1.478;2023-04-10T09:11:57;65850.31;;;10.69;100.00
44675;BME280;30388;52.038;-1.478;2023-04-10T09:14:26;65776.75;;;10.03;100.00
44675;BME280;30388;52.038;-1.478;2023-04-10T09:17:08;65883.58;;;10.89;100.00
44675;BME280;30388;52.038;-1.478;2023-04-10T09:19:37;65832.38;;;10.46;100.00
44675;BME280;30388;52.038;-1.478;2023-04-10T09:22:05;65890.41;;;11.20;100.00
44675;BME280;30388;52.038;-1.478;2023-04-10T09:24:35;65843.46;;;10.60;100.00
44675;BME280;30388;52.038;-1.478;2023-04-10T09:27:02;65873.21;;;10.98;100.00
44675;BME280;30388;52.038;-1.478;2023-04-10T09:29:40;65927.27;;;11.44;100.00
44675;BME280;30388;52.038;-1.478;2023-04-10T09:32:07;65926.26;;;11.43;100.00
44675;BME280;30388;52.038;-1.478;2023-04-10T09:34:34;65918.19;;;11.32;100.00
44675;BME280;30388;52.038;-1.478;2023-04-10T09:37:01;65921.38;;;11.37;100.00
44675;BME280;30388;52.038;-1.478;2023-04-10T09:39:37;65788.07;;;9.68;100.00
44675;BME280;30388;52.038;-1.478;2023-04-10T09:42:06;65939.09;;;11.59;100.00
44675;BME280;30388;52.038;-1.478;2023-04-10T09:44:34;65843.11;;;10.38;100.00
44675;BME280;30388;52.038;-1.478;2023-04-10T09:47:16;65854.96;;;10.75;100.00
44675;BME280;30388;52.038;-1.478;2023-04-10T09:49:45;65958.25;;;11.61;100.00
44675;BME280;30388;52.038;-1.478;2023-04-10T09:52:17;65976.00;;;11.57;100.00
44675;BME280;30388;52.038;-1.478;2023-04-10T09:54:45;65952.84;;;11.54;100.00
44675;BME280;30388;52.038;-1.478;2023-04-10T09:57:15;65946.97;;;11.69;100.00
44675;BME280;30388;52.038;-1.478;2023-04-10T09:59:47;65953.19;;;11.76;100.00
44675;BME280;30388;52.038;-1.478;2023-04-10T10:02:17;65952.21;;;11.97;100.00
44675;BME280;30388;52.038;-1.478;2023-04-10T10:04:46;65922.54;;;11.60;100.00
44675;BME280;30388;52.038;-1.478;2023-04-10T10:07:14;65903.12;;;11.14;100.00
44675;BME280;30388;52.038;-1.478;2023-04-10T10:09:43;65931.98;;;11.50;100.00
44675;BME280;30388;52.038;-1.478;2023-04-10T10:12:13;65897.91;;;10.85;100.00
44675;BME280;30388;52.038;-1.478;2023-04-10T10:14:48;65837.39;;;10.80;100.00
44675;BME280;30388;52.038;-1.478;2023-04-10T10:17:19;65761.00;;;10.05;100.00
44675;BME280;30388;52.038;-1.478;2023-04-10T10:19:57;65783.24;;;10.61;100.00
44675;BME280;30388;52.038;-1.478;2023-04-10T10:22:25;65711.18;;;9.92;100.00
44675;BME280;30388;52.038;-1.478;2023-04-10T10:24:53;65706.99;;;9.86;100.00
44675;BME280;30388;52.038;-1.478;2023-04-10T10:27:21;65671.67;;;9.19;100.00
44675;BME280;30388;52.038;-1.478;2023-04-10T10:29:49;65711.37;;;9.92;100.00
44675;BME280;30388;52.038;-1.478;2023-04-10T10:32:20;65764.30;;;10.36;100.00
44675;BME280;30388;52.038;-1.478;2023-04-10T10:34:47;65815.92;;;10.53;100.00
44675;BME280;30388;52.038;-1.478;2023-04-10T10:37:16;65883.84;;;11.38;100.00
44675;BME280;30388;52.038;-1.478;2023-04-10T10:39:53;65864.69;;;11.35;100.00
44675;BME280;30388;52.038;-1.478;2023-04-10T10:42:29;65935.97;;;12.04;100.00
44675;BME280;30388;52.038;-1.478;2023-04-10T10:45:07;66021.89;;;12.41;100.00
44675;BME280;30388;52.038;-1.478;2023-04-10T10:47:40;65996.40;;;12.54;100.00
44675;BME280;30388;52.038;-1.478;2023-04-10T10:50:08;66061.50;;;12.91;100.00
44675;BME280;30388;52.038;-1.478;2023-04-10T10:52:42;65975.96;;;12.06;100.00
44675;BME280;30388;52.038;-1.478;2023-04-10T10:55:42;66005.16;;;12.42;100.00
44675;BME280;30388;52.038;-1.478;2023-04-10T10:58:09;66080.22;;;13.37;100.00
44675;BME280;30388;52.038;-1.478;2023-04-10T11:01:08;66138.82;;;13.62;100.00
44675;BME280;30388;52.038;-1.478;2023-04-10T11:03:35;66105.48;;;13.47;100.00
44675;BME280;30388;52.038;-1.478;2023-04-10T11:06:05;66141.30;;;13.64;100.00
44675;BME280;30388;52.038;-1.478;2023-04-10T11:08:39;66127.63;;;13.96;100.00
44675;BME280;30388;52.038;-1.478;2023-04-10T11:11:07;66179.84;;;14.14;100.00
44675;BME280;30388;52.038;-1.478;2023-04-10T11:13:35;66181.65;;;13.94;100.00
44675;BME280;30388;52.038;-1.478;2023-04-10T11:16:04;66109.37;;;13.52;100.00
44675;BME280;30388;52.038;-1.478;2023-04-10T11:19:05;66011.01;;;12.50;100.00
44675;BME280;30388;52.038;-1.478;2023-04-10T11:21:33;65940.52;;;12.09;100.00
44675;BME280;30388;52.038;-1.478;2023-04-10T11:24:06;65845.39;;;10.89;100.00
44675;BME280;30388;52.038;-1.478;2023-04-10T11:26:40;65869.12;;;11.19;100.00
44675;BME280;30388;52.038;-1.478;2023-04-10T11:29:39;65979.45;;;12.10;100.00
44675;BME280;30388;52.038;-1.478;2023-04-10T11:32:07;65994.65;;;12.29;100.00
44675;BME280;30388;52.038;-1.478;2023-04-10T11:34:43;65898.65;;;11.57;100.00
44675;BME280;30388;52.038;-1.478;2023-04-10T11:37:21;65808.79;;;10.92;100.00
44675;BME280;30388;52.038;-1.478;2023-04-10T11:39:48;65827.15;;;11.16;100.00
44675;BME280;30388;52.038;-1.478;2023-04-10T11:42:28;65801.41;;;10.84;100.00
44675;BME280;30388;52.038;-1.478;2023-04-10T11:44:56;65820.05;;;11.29;100.00
44675;BME280;30388;52.038;-1.478;2023-04-10T11:47:23;65840.08;;;11.54;100.00
44675;BME280;30388;52.038;-1.478;2023-04-10T11:49:52;65973.96;;;12.53;100.00
44675;BME280;30388;52.038;-1.478;2023-04-10T11:52:24;65935.48;;;12.04;100.00
44675;BME280;30388;52.038;-1.478;2023-04-10T11:54:52;65933.87;;;12.01;100.00
44675;BME280;30388;52.038;-1.478;2023-04-10T11:57:21;65920.73;;;12.07;100.00
44675;BME280;30388;52.038;-1.478;2023-04-10T11:59:49;66017.44;;;12.80;100.00
44675;BME280;30388;52.038;-1.478;2023-04-10T12:02:18;66056.57;;;13.29;100.00
44675;BME280;30388;52.038;-1.478;2023-04-10T12:04:45;66010.88;;;12.99;100.00
44675;BME280;30388;52.038;-1.478;2023-04-10T12:07:12;65972.17;;;12.50;100.00
44675;BME280;30388;52.038;-1.478;2023-04-10T12:09:39;65951.22;;;12.45;100.00
44675;BME280;30388;52.038;-1.478;2023-04-10T12:12:08;66037.22;;;13.05;100.00
44675;BME280;30388;52.038;-1.478;2023-04-10T12:14:37;66154.61;;;14.09;100.00
44675;BME280;30388;52.038;-1.478;2023-04-10T12:17:06;66087.59;;;13.47;100.00
44675;BME280;30388;52.038;-1.478;2023-04-10T12:19:35;66122.85;;;13.43;100.00
44675;BME280;30388;52.038;-1.478;2023-04-10T12:22:03;66157.80;;;14.35;100.00
44675;BME280;30388;52.038;-1.478;2023-04-10T12:24:48;66243.85;;;14.94;100.00
44675;BME280;30388;52.038;-1.478;2023-04-10T12:27:17;66292.67;;;15.11;100.00
44675;BME280;30388;52.038;-1.478;2023-04-10T12:29:57;66083.78;;;13.42;100.00
44675;BME280;30388;52.038;-1.478;2023-04-10T12:32:25;66111.66;;;13.77;100.00
44675;BME280;30388;52.038;-1.478;2023-04-10T12:34:53;66087.30;;;13.68;100.00
44675;BME280;30388;52.038;-1.478;2023-04-10T12:37:21;66109.55;;;13.74;100.00
44675;BME280;30388;52.038;-1.478;2023-04-10T12:39:49;66143.53;;;14.17;100.00
44675;BME280;30388;52.038;-1.478;2023-04-10T12:42:17;66164.76;;;14.22;100.00
44675;BME280;30388;52.038;-1.478;2023-04-10T12:44:54;66197.49;;;14.37;100.00
44675;BME280;30388;52.038;-1.478;2023-04-10T12:47:22;66147.53;;;14.22;100.00
44675;BME280;30388;52.038;-1.478;2023-04-10T12:50:06;66094.48;;;13.55;100.00
44675;BME280;30388;52.038;-1.478;2023-04-10T12:52:40;66072.55;;;13.28;100.00
44675;BME280;30388;52.038;-1.478;2023-04-10T12:55:10;66012.51;;;12.52;100.00